Time;durP1;ratioP1;P1;durP2;ratioP2;P2;SDS_P1;SDS_P2;PMS_P1;PMS_P2;Temp;Humidity;BMP_temperature;BMP_pressure;BME280_temperature;BME280_humidity;BME280_pressure;Samples;Min_cycle;Max_cycle;Signal;HPM_P1;HPM_P2
2022/08/12 00:43:23;;;;;;;;;;;;;;;20.94;92.14;152916.92;1660018;86;20520;-71
2022/08/12 00:48:36;;;;;;;;;;;;;;;20.95;92.34;152919.53;1659495;85;21718;-72
2022/08/12 00:51:03;;;;;;;;;;;;;;;20.94;92.37;152918.20;1659515;85;20229;-72
2022/08/12 00:53:30;;;;;;;;;;;;;;;20.93;92.46;152914.31;1659911;86;20172;-71
2022/08/12 00:55:57;;;;;;;;;;;;;;;20.93;92.53;152914.31;1661260;85;20264;-72
2022/08/12 00:58:37;;;;;;;;;;;;;;;20.93;92.50;152915.59;1615913;87;20246;-72
2022/08/12 01:01:06;;;;;;;;;;;;;;;20.91;92.38;152910.38;1616038;87;21252;-72
2022/08/12 01:11:52;;;;;;;;;;;;;;;20.85;93.01;152894.70;1606753;87;20209;-71
2022/08/12 01:14:22;;;;;;;;;;;;;;;20.81;93.51;152885.55;1615997;87;21255;-71
2022/08/12 01:19:32;;;;;;;;;;;;;;;20.82;94.24;152888.16;1844479;77;20403;-57
2022/08/12 01:22:24;;;;;;;;;;;;;;;20.76;94.48;152872.44;1821341;78;20402;-58
2022/08/12 01:25:01;;;;;;;;;;;;;;;20.76;94.35;152873.72;1821205;78;21277;-58
2022/08/12 01:27:28;;;;;;;;;;;;;;;20.77;94.34;152875.05;1821167;78;21112;-57
2022/08/12 01:29:55;;;;;;;;;;;;;;;20.75;94.01;152869.83;1789226;78;20136;-58
2022/08/12 01:32:23;;;;;;;;;;;;;;;20.72;93.95;152862.00;1821598;78;20134;-58
2022/08/12 01:35:05;;;;;;;;;;;;;;;20.73;94.04;152864.61;1821332;78;20149;-57
2022/08/12 01:37:36;;;;;;;;;;;;;;;20.75;93.86;152869.83;1821474;78;21288;-58
2022/08/12 01:40:04;;;;;;;;;;;;;;;20.76;93.80;152872.44;1821151;78;20148;-58
2022/08/12 01:42:33;;;;;;;;;;;;;;;20.77;93.76;152875.05;1821525;78;20453;-57
2022/08/12 01:45:00;;;;;;;;;;;;;;;20.76;93.74;152873.72;1821173;78;20191;-58
2022/08/12 01:47:33;;;;;;;;;;;;;;;20.78;93.90;152876.33;1821214;78;20161;-58
2022/08/12 01:50:19;;;;;;;;;;;;;;;20.77;93.69;152875.05;1820851;78;21132;-58
2022/08/12 01:52:59;;;;;;;;;;;;;;;20.71;93.77;152859.38;1794853;78;20125;-57
2022/08/12 01:55:32;;;;;;;;;;;;;;;20.69;93.85;152854.16;1821224;78;20425;-58
2022/08/12 01:58:20;;;;;;;;;;;;;;;20.65;93.93;152843.67;1820979;78;20181;-71
2022/08/12 02:00:51;;;;;;;;;;;;;;;20.65;93.93;152843.67;1821169;78;20181;-71
2022/08/12 02:12:36;;;;;;;;;;;;;;;20.54;93.74;152816.23;1777684;79;20124;-58
2022/08/12 02:15:31;;;;;;;;;;;;;;;20.51;93.80;152809.73;1759330;80;20638;-58
2022/08/12 02:18:03;;;;;;;;;;;;;;;20.50;93.94;152807.13;1780656;79;21606;-57
2022/08/12 02:20:38;;;;;;;;;;;;;;;20.51;93.94;152809.73;1759582;81;20455;-58
2022/08/12 02:23:06;;;;;;;;;;;;;;;20.50;93.96;152807.13;1759879;80;20175;-58
2022/08/12 02:25:35;;;;;;;;;;;;;;;20.50;94.19;152807.13;1759631;80;20460;-71
2022/08/12 02:28:02;;;;;;;;;;;;;;;20.50;94.31;152807.13;1757217;81;20227;-71
2022/08/12 02:30:30;;;;;;;;;;;;;;;20.48;94.37;152801.91;1759184;81;21127;-71
2022/08/12 02:32:59;;;;;;;;;;;;;;;20.47;94.61;152800.56;1758931;81;20151;-70
2022/08/12 02:35:27;;;;;;;;;;;;;;;20.47;94.89;152799.28;1758987;81;20452;-71
2022/08/12 02:37:57;;;;;;;;;;;;;;;20.49;95.10;152803.19;1758967;80;20171;-71
2022/08/12 02:40:24;;;;;;;;;;;;;;;20.49;95.24;152804.50;1759125;81;20139;-71
2022/08/12 02:43:05;;;;;;;;;;;;;;;20.49;95.45;152803.19;1759056;81;21126;-70
2022/08/12 02:45:37;;;;;;;;;;;;;;;20.51;95.72;152809.73;1759147;81;20115;-72
2022/08/12 02:48:06;;;;;;;;;;;;;;;20.54;95.80;152817.56;1758986;81;20143;-72
2022/08/12 02:50:35;;;;;;;;;;;;;;;20.57;95.99;152824.11;1759065;80;20555;-71
2022/08/12 02:53:02;;;;;;;;;;;;;;;20.61;96.00;152835.84;1759023;81;20115;-71
2022/08/12 02:55:30;;;;;;;;;;;;;;;20.65;96.04;152845.00;1759376;81;21226;-71
2022/08/12 02:57:57;;;;;;;;;;;;;;;20.68;96.26;152851.55;1758884;80;20192;-72
2022/08/12 03:00:23;;;;;;;;;;;;;;;20.67;96.48;152848.89;1759021;81;20183;-73
2022/08/12 03:02:50;;;;;;;;;;;;;;;20.67;97.07;152848.89;1758935;81;20455;-72
2022/08/12 03:05:17;;;;;;;;;;;;;;;20.68;97.34;152851.55;1753076;81;20213;-71
2022/08/12 03:07:46;;;;;;;;;;;;;;;20.69;97.61;152855.44;1741188;81;21196;-72
2022/08/12 03:10:14;;;;;;;;;;;;;;;20.74;97.83;152867.22;1741130;81;20227;-71
2022/08/12 03:12:45;;;;;;;;;;;;;;;20.76;97.97;152872.44;1760059;81;20219;-72
2022/08/12 03:15:15;;;;;;;;;;;;;;;20.77;98.10;152875.05;1792344;80;20220;-72
2022/08/12 03:18:01;;;;;;;;;;;;;;;20.79;98.54;152879.00;1760569;81;20145;-70
2022/08/12 03:20:27;;;;;;;;;;;;;;;20.76;98.92;152873.72;1683553;83;20683;-71
2022/08/12 03:22:54;;;;;;;;;;;;;;;20.71;99.75;152860.66;1742931;82;20519;-71
2022/08/12 03:25:26;;;;;;;;;;;;;;;20.68;100.00;152852.83;1712749;82;20145;-58
2022/08/12 03:27:54;;;;;;;;;;;;;;;20.69;100.00;152854.16;1742650;82;20206;-58
2022/08/12 03:30:24;;;;;;;;;;;;;;;20.67;100.00;152848.89;1742471;82;20467;-58
2022/08/12 03:32:51;;;;;;;;;;;;;;;20.71;100.00;152859.38;1712886;82;21136;-58
2022/08/12 03:35:25;;;;;;;;;;;;;;;20.71;100.00;152859.38;1742251;81;20470;-57
2022/08/12 03:37:51;;;;;;;;;;;;;;;20.73;100.00;152864.61;1712563;82;20454;-57
2022/08/12 04:02:19;;;;;;;;;;;;;;;19.69;100.00;152602.02;1712676;82;20467;-57
2022/08/12 04:04:46;;;;;;;;;;;;;;;19.60;100.00;152581.09;1713944;83;20173;-58
2022/08/12 04:07:15;;;;;;;;;;;;;;;19.56;100.00;152569.33;1761841;81;20221;-59
2022/08/12 04:09:42;;;;;;;;;;;;;;;19.53;100.00;141102.97;1762114;81;20136;-58
2022/08/12 04:14:58;;;;;;;;;;;;;;;19.57;100.00;88693.58;1758280;81;20191;-58
2022/08/12 04:17:26;;;;;;;;;;;;;;;19.60;100.00;75542.36;1758745;80;20142;-58
2022/08/12 04:19:55;;;;;;;;;;;;;;;19.65;100.00;63302.46;1783213;80;20452;-58
2022/08/12 04:22:30;;;;;;;;;;;;;;;19.68;100.00;56769.76;1784706;80;20133;-58
2022/08/12 04:24:54;;;;;;;;;;;;;;;19.77;100.00;49739.43;1783710;80;21278;-58
2022/08/12 04:27:21;;;;;;;;;;;;;;;19.86;100.00;41352.10;1784869;80;20193;-58
2022/08/12 04:29:48;;;;;;;;;;;;;;;19.96;100.00;35375.09;1785316;80;20108;-58
2022/08/12 04:32:15;;;;;;;;;;;;;;;20.09;100.00;31284.62;1784902;80;20167;-58
2022/08/12 04:34:43;;;;;;;;;;;;;;;20.19;100.00;29072.29;1785028;80;20176;-58
2022/08/12 04:37:11;;;;;;;;;;;;;;;20.29;100.00;28907.20;1785236;80;21301;-71
2022/08/12 04:39:38;;;;;;;;;;;;;;;20.40;100.00;30619.60;1785530;80;21203;-70
2022/08/12 04:42:05;;;;;;;;;;;;;;;20.52;100.00;31138.48;1785185;80;20143;-70
2022/08/12 04:44:33;;;;;;;;;;;;;;;20.67;100.00;34564.52;1785410;80;20546;-71
2022/08/12 04:46:59;;;;;;;;;;;;;;;20.78;100.00;45362.68;1784998;80;20286;-70
2022/08/12 04:49:26;;;;;;;;;;;;;;;20.92;100.00;52588.20;1785082;80;21271;-69
2022/08/12 04:51:54;;;;;;;;;;;;;;;21.10;100.00;63117.06;1785244;80;20168;-71
2022/08/12 04:54:22;;;;;;;;;;;;;;;21.25;100.00;85119.12;1785227;80;20164;-71
2022/08/12 04:56:51;;;;;;;;;;;;;;;21.41;100.00;110078.16;1785197;80;20128;-71
2022/08/12 04:59:18;;;;;;;;;;;;;;;21.60;100.00;131886.00;1785071;80;20159;-71
2022/08/12 05:01:51;;;;;;;;;;;;;;;21.78;100.00;153130.03;1785041;80;21183;-59
2022/08/12 05:04:19;;;;;;;;;;;;;;;21.96;100.00;153174.50;1784837;80;20504;-70
2022/08/12 05:06:46;;;;;;;;;;;;;;;22.16;100.00;153225.47;1760695;80;20175;-70
2022/08/12 05:09:14;;;;;;;;;;;;;;;22.33;100.00;153268.67;1758715;80;20131;-58
2022/08/12 05:11:41;;;;;;;;;;;;;;;22.48;100.00;153306.64;1758747;81;20281;-58
2022/08/12 05:14:08;;;;;;;;;;;;;;;22.56;100.00;153327.55;1758454;81;22842;-58
2022/08/12 05:16:36;;;;;;;;;;;;;;;22.64;100.00;153345.84;1727925;83;20453;-58
2022/08/12 05:19:02;;;;;;;;;;;;;;;22.72;100.00;153368.09;1739694;81;20185;-58
2022/08/12 05:21:29;;;;;;;;;;;;;;;22.75;100.00;153374.66;1768997;80;20184;-72
2022/08/12 05:23:56;;;;;;;;;;;;;;;22.81;100.00;153390.34;1768974;80;20164;-71
2022/08/12 05:26:23;;;;;;;;;;;;;;;22.86;100.00;153403.41;1768738;81;21191;-70
2022/08/12 05:28:52;;;;;;;;;;;;;;;22.95;100.00;153425.66;1768895;80;20247;-70
2022/08/12 05:31:19;;;;;;;;;;;;;;;23.03;100.00;153446.63;1769138;80;20156;-71
2022/08/12 05:33:46;;;;;;;;;;;;;;;23.09;100.00;153460.98;1769433;80;20448;-72
2022/08/12 05:36:14;;;;;;;;;;;;;;;23.17;100.00;153481.94;1768763;80;20287;-72
2022/08/12 05:38:56;;;;;;;;;;;;;;;23.24;99.72;153497.64;1768909;81;22560;-71
2022/08/12 05:41:25;;;;;;;;;;;;;;;23.37;99.53;153531.73;1768666;81;20125;-70
2022/08/12 05:43:58;;;;;;;;;;;;;;;23.50;98.05;153563.11;1769041;81;20180;-58
2022/08/12 05:46:26;;;;;;;;;;;;;;;23.63;97.40;153595.83;1769052;80;20133;-58
2022/08/12 05:48:57;;;;;;;;;;;;;;;23.74;95.84;153625.94;1747491;79;20181;-58
2022/08/12 05:51:25;;;;;;;;;;;;;;;23.80;94.58;153639.06;1738250;80;21331;-59
2022/08/12 05:53:52;;;;;;;;;;;;;;;23.85;93.58;153653.42;1738542;82;20404;-58
2022/08/12 05:56:30;;;;;;;;;;;;;;;23.89;91.90;153662.61;1739249;82;20181;-58
2022/08/12 05:58:58;;;;;;;;;;;;;;;23.93;91.45;153671.78;1741017;82;20565;-71
2022/08/12 06:01:25;;;;;;;;;;;;;;;24.01;90.77;153694.09;1740549;82;20430;-72
2022/08/12 06:03:51;;;;;;;;;;;;;;;24.11;89.44;153717.64;1734584;82;22716;-71
2022/08/12 06:06:19;;;;;;;;;;;;;;;24.16;88.26;153730.72;1732670;82;20175;-70
2022/08/12 06:08:47;;;;;;;;;;;;;;;24.22;87.48;153746.47;1739525;80;20240;-71
2022/08/12 06:11:15;;;;;;;;;;;;;;;24.27;86.47;153758.22;1734796;81;20148;-59
2022/08/12 06:13:42;;;;;;;;;;;;;;;24.32;86.05;153772.64;1733353;81;20197;-58
2022/08/12 06:16:12;;;;;;;;;;;;;;;24.42;86.19;153796.19;1737283;81;22688;-59
2022/08/12 06:18:38;;;;;;;;;;;;;;;24.50;85.18;153817.17;1732134;81;20180;-59
2022/08/12 06:21:11;;;;;;;;;;;;;;;24.54;84.51;153827.64;1733128;81;20340;-58
2022/08/12 06:23:38;;;;;;;;;;;;;;;24.57;83.15;153834.20;1737753;81;20421;-59
2022/08/12 06:26:08;;;;;;;;;;;;;;;24.59;82.80;153840.72;1736788;82;20192;-58
2022/08/12 06:28:34;;;;;;;;;;;;;;;24.68;81.32;153863.00;1737268;81;21127;-59
2022/08/12 06:31:02;;;;;;;;;;;;;;;24.70;81.25;153866.95;1730875;80;20200;-70
2022/08/12 06:33:29;;;;;;;;;;;;;;;24.75;81.55;153880.09;1736834;82;20200;-71
2022/08/12 06:35:57;;;;;;;;;;;;;;;24.84;79.25;153903.64;1738172;80;20136;-72
2022/08/12 06:38:24;;;;;;;;;;;;;;;24.82;79.44;153898.41;1732269;82;20212;-58
2022/08/12 06:43:42;;;;;;;;;;;;;;;24.98;79.21;153939.05;1735430;82;20172;-58
2022/08/12 06:46:10;;;;;;;;;;;;;;;25.17;79.17;153987.50;1738914;82;20173;-58
2022/08/12 06:48:37;;;;;;;;;;;;;;;25.41;78.96;154047.77;1739666;82;20621;-58
2022/08/12 06:51:04;;;;;;;;;;;;;;;25.65;78.00;154108.09;1737448;82;20165;-57
2022/08/12 06:53:31;;;;;;;;;;;;;;;25.81;76.05;154148.70;1731789;80;21139;-59
2022/08/12 06:55:59;;;;;;;;;;;;;;;25.92;74.12;154176.23;1732156;81;20447;-58
2022/08/12 06:58:30;;;;;;;;;;;;;;;25.95;72.95;154184.09;1731516;82;20202;-58
2022/08/12 07:00:57;;;;;;;;;;;;;;;25.85;72.75;154157.91;1737562;81;20167;-58
2022/08/12 07:03:28;;;;;;;;;;;;;;;25.84;73.28;154155.28;1729435;82;20196;-58
2022/08/12 07:05:56;;;;;;;;;;;;;;;25.94;73.41;154181.47;1730374;80;22076;-57
2022/08/12 07:08:27;;;;;;;;;;;;;;;26.07;72.39;154212.95;1735220;82;20249;-58
2022/08/12 07:10:59;;;;;;;;;;;;;;;26.15;72.11;154233.91;1738937;81;20463;-58
2022/08/12 07:13:37;;;;;;;;;;;;;;;26.18;71.76;154241.81;1734629;80;20402;-58
2022/08/12 07:16:05;;;;;;;;;;;;;;;26.20;71.33;154247.09;1730599;82;20223;-59
2022/08/12 07:18:32;;;;;;;;;;;;;;;26.30;71.61;154271.97;1734932;81;21191;-58
2022/08/12 07:21:01;;;;;;;;;;;;;;;26.39;70.91;154294.25;1733759;80;20344;-57
2022/08/12 07:23:29;;;;;;;;;;;;;;;26.49;71.08;154319.16;1735473;80;20173;-58
2022/08/12 07:25:56;;;;;;;;;;;;;;;26.56;70.49;154338.84;1732690;82;20584;-58
2022/08/12 07:28:26;;;;;;;;;;;;;;;26.65;70.62;154359.84;1734257;81;20453;-58
2022/08/12 07:30:54;;;;;;;;;;;;;;;26.78;69.57;154393.91;1736446;81;21177;-59
2022/08/12 07:33:22;;;;;;;;;;;;;;;26.82;69.22;154403.11;1732479;80;20149;-58
2022/08/12 07:35:49;;;;;;;;;;;;;;;26.87;68.75;154416.27;1735267;82;20200;-58
2022/08/12 07:38:25;;;;;;;;;;;;;;;26.93;68.85;154431.98;1727859;81;20193;-58
2022/08/12 07:40:58;;;;;;;;;;;;;;;26.93;68.02;154431.98;1737226;82;20226;-58
2022/08/12 07:43:26;;;;;;;;;;;;;;;26.83;67.57;154407.02;1730178;81;21956;-58
2022/08/12 07:45:53;;;;;;;;;;;;;;;26.81;68.30;154401.77;1733778;81;20161;-59
2022/08/12 07:48:20;;;;;;;;;;;;;;;26.82;67.93;154404.39;1729812;82;20365;-59
2022/08/12 07:50:47;;;;;;;;;;;;;;;26.84;67.51;154409.64;1736201;82;21270;-58
2022/08/12 07:53:14;;;;;;;;;;;;;;;26.86;66.33;154414.97;1737241;82;20192;-59
2022/08/12 07:55:41;;;;;;;;;;;;;;;26.87;66.51;154417.59;1735501;81;21221;-58
2022/08/12 07:58:07;;;;;;;;;;;;;;;26.90;66.49;154422.83;1734557;82;20214;-58
2022/08/12 08:00:35;;;;;;;;;;;;;;;26.89;66.10;154421.50;1733338;80;20735;-59
2022/08/12 08:03:02;;;;;;;;;;;;;;;26.82;66.71;154404.39;1734808;80;20197;-59
2022/08/12 08:05:36;;;;;;;;;;;;;;;26.74;67.46;154383.44;1738053;82;20439;-58
2022/08/12 08:08:00;;;;;;;;;;;;;;;26.73;67.41;154382.09;1728605;81;21240;-58
2022/08/12 08:10:29;;;;;;;;;;;;;;;26.75;67.33;154386.05;1728200;82;20071;-59
2022/08/12 08:12:58;;;;;;;;;;;;;;;26.73;67.46;154380.81;1735549;80;20167;-58
2022/08/12 08:15:26;;;;;;;;;;;;;;;26.72;67.35;154378.19;1733984;82;20189;-59
2022/08/12 08:18:02;;;;;;;;;;;;;;;26.71;67.67;154376.86;1734072;80;20212;-59
2022/08/12 08:20:34;;;;;;;;;;;;;;;26.70;67.01;154374.23;1730893;80;21149;-59
2022/08/12 08:23:05;;;;;;;;;;;;;;;26.63;67.35;154354.56;1731014;82;20182;-59
2022/08/12 08:25:33;;;;;;;;;;;;;;;26.64;67.74;154358.52;1738219;80;20790;-59
2022/08/12 08:28:01;;;;;;;;;;;;;;;26.64;68.22;154357.19;1744968;80;20542;-60
2022/08/12 08:30:28;;;;;;;;;;;;;;;26.69;68.12;154371.61;1742904;80;20435;-59
2022/08/12 08:32:55;;;;;;;;;;;;;;;26.67;68.70;154365.09;1745406;80;21232;-59
2022/08/12 08:35:23;;;;;;;;;;;;;;;26.74;69.07;154384.72;1741858;80;20200;-59
2022/08/12 08:37:50;;;;;;;;;;;;;;;26.80;68.69;154397.88;1743561;82;20245;-59
2022/08/12 08:43:03;;;;;;;;;;;;;;;26.91;68.87;154425.45;1741563;80;20223;-59
2022/08/12 08:45:30;;;;;;;;;;;;;;;26.87;67.76;154417.59;1744519;82;21239;-58
2022/08/12 08:47:58;;;;;;;;;;;;;;;26.74;68.17;154383.44;1737246;81;20228;-59
2022/08/12 08:50:25;;;;;;;;;;;;;;;26.63;68.97;154354.56;1738298;80;20132;-59
2022/08/12 08:52:51;;;;;;;;;;;;;;;26.49;69.84;154320.50;1733458;80;20160;-60
2022/08/12 08:55:18;;;;;;;;;;;;;;;26.36;70.40;154287.72;1735975;82;20172;-59
2022/08/12 08:57:48;;;;;;;;;;;;;;;26.24;71.04;154256.25;1739512;82;21132;-60
2022/08/12 09:00:19;;;;;;;;;;;;;;;26.16;71.90;154236.52;1738509;82;20201;-59
2022/08/12 09:02:46;;;;;;;;;;;;;;;26.14;72.08;154231.28;1741658;82;20349;-60
2022/08/12 09:05:13;;;;;;;;;;;;;;;26.15;72.59;154233.91;1740265;82;20171;-60
2022/08/12 09:07:44;;;;;;;;;;;;;;;26.24;73.19;154257.58;1745963;80;20196;-58
2022/08/12 09:10:12;;;;;;;;;;;;;;;26.36;73.02;154286.39;1739524;82;21244;-58
2022/08/12 09:15:24;;;;;;;;;;;;;;;26.58;72.24;154344.08;1740245;80;20203;-58
2022/08/12 09:17:54;;;;;;;;;;;;;;;26.63;71.94;154354.56;1742151;80;20100;-58
2022/08/12 09:20:32;;;;;;;;;;;;;;;26.62;71.08;154353.27;1740420;80;20302;-70
2022/08/12 09:23:00;;;;;;;;;;;;;;;26.58;71.39;154344.08;1731911;81;21095;-72
2022/08/12 09:25:29;;;;;;;;;;;;;;;26.64;71.04;154357.19;1733671;81;20387;-72
2022/08/12 09:27:57;;;;;;;;;;;;;;;26.65;71.11;154359.84;1730998;81;20189;-71
2022/08/12 09:30:24;;;;;;;;;;;;;;;26.71;71.07;154375.56;1734044;81;21407;-72
2022/08/12 09:32:50;;;;;;;;;;;;;;;26.86;71.33;154414.97;1734572;81;20204;-71
2022/08/12 09:35:19;;;;;;;;;;;;;;;27.06;70.83;154464.77;1732787;81;21231;-72
2022/08/12 09:37:47;;;;;;;;;;;;;;;27.16;68.22;154489.69;1738519;82;20180;-72
2022/08/12 09:40:14;;;;;;;;;;;;;;;27.22;68.27;154505.47;1740603;82;20181;-72
2022/08/12 09:45:22;;;;;;;;;;;;;;;27.48;67.06;154571.03;1715657;81;20221;-72
2022/08/12 09:47:49;;;;;;;;;;;;;;;27.63;66.98;154609.13;1737127;80;21297;-72
2022/08/12 09:50:18;;;;;;;;;;;;;;;27.79;66.56;154649.78;1737285;80;20448;-73
2022/08/12 09:52:45;;;;;;;;;;;;;;;27.95;66.66;154690.44;1739579;81;20313;-73
2022/08/12 09:55:13;;;;;;;;;;;;;;;28.00;65.67;154703.61;1735831;82;20233;-72
2022/08/12 09:57:39;;;;;;;;;;;;;;;27.87;65.48;154669.47;1727463;82;20455;-72
2022/08/12 10:00:12;;;;;;;;;;;;;;;27.80;65.83;154651.13;1728483;80;21307;-71
2022/08/12 10:02:58;;;;;;;;;;;;;;;27.84;66.34;154662.89;1736423;82;20187;-72
2022/08/12 10:05:24;;;;;;;;;;;;;;;28.01;65.60;154706.23;1733636;81;20200;-73
2022/08/12 10:07:51;;;;;;;;;;;;;;;28.16;64.91;154744.33;1739279;82;20294;-72
2022/08/12 10:10:18;;;;;;;;;;;;;;;28.21;64.44;154756.16;1740256;82;20239;-73
2022/08/12 10:15:30;;;;;;;;;;;;;;;28.27;64.10;154770.55;1737019;82;20132;-73
2022/08/12 10:17:57;;;;;;;;;;;;;;;28.30;63.52;154779.75;1738867;80;20199;-73
2022/08/12 10:20:24;;;;;;;;;;;;;;;28.30;63.62;154778.47;1737249;82;20201;-72
2022/08/12 10:23:00;;;;;;;;;;;;;;;28.35;63.93;154791.58;1752853;81;20526;-73
2022/08/12 10:30:57;;;;;;;;;;;;;;;28.45;63.25;154816.52;1754592;80;20219;-59
2022/08/12 10:33:24;;;;;;;;;;;;;;;28.57;63.47;154847.98;1751819;81;20537;-59
2022/08/12 10:35:52;;;;;;;;;;;;;;;28.71;63.26;154882.14;1755140;80;20232;-59
2022/08/12 10:38:19;;;;;;;;;;;;;;;28.75;62.99;154892.62;1754614;81;22650;-73
2022/08/12 10:43:41;;;;;;;;;;;;;;;28.91;61.51;154932.08;1754492;80;20382;-74
2022/08/12 10:46:09;;;;;;;;;;;;;;;29.04;61.65;154966.19;1757961;81;20196;-73
2022/08/12 10:48:37;;;;;;;;;;;;;;;29.18;61.22;155001.67;1757838;81;20458;-73
2022/08/12 10:51:03;;;;;;;;;;;;;;;29.32;60.90;155037.13;1752836;80;21285;-74
2022/08/12 10:53:32;;;;;;;;;;;;;;;29.33;60.18;155039.75;1757718;81;20201;-74
2022/08/12 10:55:59;;;;;;;;;;;;;;;29.39;60.58;155055.50;1754805;81;20219;-73
2022/08/12 10:58:27;;;;;;;;;;;;;;;29.53;59.67;155089.70;1750893;80;20207;-73
2022/08/12 11:00:54;;;;;;;;;;;;;;;29.51;59.69;155084.41;1754588;80;20523;-74
2022/08/12 11:03:21;;;;;;;;;;;;;;;29.54;60.14;155092.33;1746377;81;22719;-73
2022/08/12 11:05:47;;;;;;;;;;;;;;;29.52;59.05;155087.08;1751210;81;20192;-74
2022/08/12 11:08:16;;;;;;;;;;;;;;;29.34;59.74;155041.03;1758052;80;20191;-73
2022/08/12 11:10:43;;;;;;;;;;;;;;;29.21;59.99;155008.22;1758578;80;20164;-74
2022/08/12 11:13:10;;;;;;;;;;;;;;;29.12;60.59;154985.89;1757897;81;20201;-74
2022/08/12 11:15:37;;;;;;;;;;;;;;;29.25;60.88;155018.70;1759079;80;21243;-74
2022/08/12 11:18:04;;;;;;;;;;;;;;;29.44;59.71;155068.66;1759294;81;20428;-73
2022/08/12 11:20:31;;;;;;;;;;;;;;;29.63;58.72;155114.66;1754441;81;20224;-74
2022/08/12 11:22:59;;;;;;;;;;;;;;;29.77;58.32;155151.41;1746166;81;20205;-73
2022/08/12 11:25:25;;;;;;;;;;;;;;;29.79;57.88;155156.66;1742429;82;20425;-74
2022/08/12 11:27:52;;;;;;;;;;;;;;;29.75;57.72;155144.86;1734725;82;21234;-74
2022/08/12 11:30:19;;;;;;;;;;;;;;;29.64;57.34;155118.56;1741340;82;20201;-74
2022/08/12 11:32:45;;;;;;;;;;;;;;;29.62;57.88;155111.98;1741610;82;20321;-73
2022/08/12 11:35:12;;;;;;;;;;;;;;;29.62;58.25;155111.98;1735816;82;20229;-73
2022/08/12 11:37:39;;;;;;;;;;;;;;;29.65;57.67;155121.19;1735708;82;20252;-75
2022/08/12 11:40:06;;;;;;;;;;;;;;;29.69;58.32;155131.69;1735571;82;21843;-74
2022/08/12 11:42:34;;;;;;;;;;;;;;;29.67;58.69;155126.44;1733180;81;20406;-74
2022/08/12 11:45:02;;;;;;;;;;;;;;;29.78;58.42;155152.73;1737266;82;20181;-73
2022/08/12 11:47:29;;;;;;;;;;;;;;;29.92;58.44;155189.48;1739728;80;20409;-72
2022/08/12 11:49:56;;;;;;;;;;;;;;;30.04;57.56;155219.75;1739443;82;20172;-73
2022/08/12 11:52:23;;;;;;;;;;;;;;;30.12;57.19;155240.80;1738859;81;21233;-73
2022/08/12 11:54:49;;;;;;;;;;;;;;;30.25;56.52;155273.63;1735785;81;20351;-72
2022/08/12 11:57:16;;;;;;;;;;;;;;;30.35;56.23;155298.59;1732134;81;20220;-75
2022/08/12 11:59:43;;;;;;;;;;;;;;;30.34;55.41;155294.63;1738881;81;20150;-75
2022/08/12 12:02:10;;;;;;;;;;;;;;;30.30;55.61;155286.75;1734670;81;20141;-76
2022/08/12 12:04:36;;;;;;;;;;;;;;;30.34;55.79;155294.63;1730117;81;21259;-76
2022/08/12 12:07:05;;;;;;;;;;;;;;;30.40;55.66;155310.44;1734406;81;20161;-75
2022/08/12 12:09:32;;;;;;;;;;;;;;;30.42;56.16;155315.69;1732270;81;20145;-76
2022/08/12 12:11:59;;;;;;;;;;;;;;;30.47;55.73;155328.81;1741504;80;20257;-77
2022/08/12 12:14:26;;;;;;;;;;;;;;;30.43;55.89;155319.59;1731619;81;20183;-77
2022/08/12 12:16:53;;;;;;;;;;;;;;;30.37;55.21;155302.50;1736093;82;21069;-76
2022/08/12 12:19:19;;;;;;;;;;;;;;;30.29;54.20;155284.13;1732745;82;20687;-76
2022/08/12 12:21:46;;;;;;;;;;;;;;;30.26;54.79;155276.25;1733915;81;20168;-76
2022/08/12 12:24:13;;;;;;;;;;;;;;;30.21;55.43;155261.78;1737794;82;20181;-59
2022/08/12 12:26:40;;;;;;;;;;;;;;;30.16;56.05;155249.95;1738297;82;20413;-59
2022/08/12 12:29:06;;;;;;;;;;;;;;;30.13;56.22;155243.42;1730757;81;21243;-60
2022/08/12 12:31:33;;;;;;;;;;;;;;;30.14;55.89;155244.70;1738337;80;20213;-59
2022/08/12 12:34:00;;;;;;;;;;;;;;;30.10;55.41;155234.20;1735206;81;20441;-59
2022/08/12 12:36:27;;;;;;;;;;;;;;;30.01;55.34;155213.20;1733632;80;20556;-59
2022/08/12 12:38:53;;;;;;;;;;;;;;;29.91;55.77;155186.86;1733274;82;20292;-59
2022/08/12 12:41:20;;;;;;;;;;;;;;;29.92;55.63;155189.48;1736459;82;22215;-76
2022/08/12 12:43:47;;;;;;;;;;;;;;;29.96;54.80;155198.70;1734428;81;20306;-76
2022/08/12 12:46:13;;;;;;;;;;;;;;;29.94;54.22;155194.73;1733971;82;20221;-75
2022/08/12 12:48:41;;;;;;;;;;;;;;;29.86;53.76;155173.73;1734888;81;20172;-75
2022/08/12 12:51:17;;;;;;;;;;;;;;;29.80;53.95;155157.98;1730156;81;20242;-75
2022/08/12 12:53:48;;;;;;;;;;;;;;;29.80;53.90;155157.98;1732529;82;21117;-74
2022/08/12 12:56:22;;;;;;;;;;;;;;;29.82;53.57;155163.23;1728561;82;20967;-74
2022/08/12 12:58:52;;;;;;;;;;;;;;;29.81;53.72;155160.61;1737660;81;20197;-74
2022/08/12 13:01:26;;;;;;;;;;;;;;;29.82;53.87;155163.23;1736033;81;20472;-74
2022/08/12 13:03:56;;;;;;;;;;;;;;;29.85;54.02;155171.11;1737295;82;20169;-74
2022/08/12 13:06:24;;;;;;;;;;;;;;;29.88;53.75;155178.98;1735373;82;21876;-74
2022/08/12 13:08:52;;;;;;;;;;;;;;;29.95;53.93;155197.36;1741178;82;20112;-75
2022/08/12 13:11:23;;;;;;;;;;;;;;;30.03;53.74;155217.13;1742475;81;20222;-74
2022/08/12 13:13:50;;;;;;;;;;;;;;;30.09;53.58;155232.91;1735613;80;20168;-74
2022/08/12 13:16:19;;;;;;;;;;;;;;;30.11;53.18;155238.17;1735492;82;20229;-74
2022/08/12 13:18:46;;;;;;;;;;;;;;;30.09;53.30;155231.58;1738412;81;21096;-74
2022/08/12 13:21:16;;;;;;;;;;;;;;;30.10;53.96;155234.20;1739227;82;20197;-76
2022/08/12 13:23:44;;;;;;;;;;;;;;;30.14;53.76;155244.70;1736237;80;20173;-73
2022/08/12 13:26:09;;;;;;;;;;;;;;;30.17;53.80;155252.58;1732904;82;20325;-59
2022/08/12 13:28:36;;;;;;;;;;;;;;;30.29;53.88;155284.13;1738719;81;20205;-59
2022/08/12 13:31:03;;;;;;;;;;;;;;;30.45;53.28;155323.56;1738382;82;20523;-59
2022/08/12 13:33:31;;;;;;;;;;;;;;;30.50;52.61;155336.69;1736037;82;20588;-74
2022/08/12 13:36:03;;;;;;;;;;;;;;;30.51;52.21;155339.31;1738335;82;20204;-74
2022/08/12 13:38:43;;;;;;;;;;;;;;;30.51;52.39;155338.03;1739568;82;20162;-74
2022/08/12 13:41:31;;;;;;;;;;;;;;;30.55;52.31;155348.53;1732605;82;20623;-59
2022/08/12 13:43:41;;;;;;;;;;;;;;;30.57;52.39;155353.78;1730263;82;21111;-75
2022/08/12 13:46:09;;;;;;;;;;;;;;;30.54;52.75;155347.19;1726864;81;20823;-74
2022/08/12 13:48:35;;;;;;;;;;;;;;;30.49;52.86;155334.06;1722882;82;20292;-75
2022/08/12 13:51:02;;;;;;;;;;;;;;;30.44;53.22;155320.94;1734999;82;20224;-75
2022/08/12 13:53:29;;;;;;;;;;;;;;;30.42;53.15;155316.97;1731746;82;20252;-74
2022/08/12 13:55:55;;;;;;;;;;;;;;;30.38;54.30;155305.14;1736290;82;21193;-58
2022/08/12 13:58:22;;;;;;;;;;;;;;;30.09;57.35;155232.91;1732711;82;20120;-59
2022/08/12 14:00:50;;;;;;;;;;;;;;;29.80;58.10;155157.98;1737154;80;20256;-58
2022/08/12 14:03:20;;;;;;;;;;;;;;;29.53;58.35;155089.70;1735987;80;20207;-59
2022/08/12 14:05:47;;;;;;;;;;;;;;;29.39;59.14;155054.16;1737205;82;20132;-59
2022/08/12 14:08:14;;;;;;;;;;;;;;;29.25;59.14;155018.70;1737698;82;21189;-59
2022/08/12 14:10:50;;;;;;;;;;;;;;;29.15;59.91;154995.09;1738877;81;20137;-59
2022/08/12 14:13:19;;;;;;;;;;;;;;;29.00;60.02;154955.69;1739120;81;20242;-60
2022/08/12 14:15:51;;;;;;;;;;;;;;;28.88;60.28;154926.84;1734074;81;20177;-60
2022/08/12 14:18:19;;;;;;;;;;;;;;;28.75;60.64;154892.62;1729971;81;20203;-59
2022/08/12 14:20:57;;;;;;;;;;;;;;;28.60;61.21;154855.86;1741537;81;21210;-59
2022/08/12 14:23:23;;;;;;;;;;;;;;;28.45;62.30;154816.52;1725976;81;20452;-60
2022/08/12 14:25:51;;;;;;;;;;;;;;;28.27;63.39;154771.89;1738689;81;20197;-59
2022/08/12 14:28:18;;;;;;;;;;;;;;;28.10;64.02;154728.53;1750700;81;20233;-59
2022/08/12 14:31:01;;;;;;;;;;;;;;;27.86;64.39;154668.19;1742148;81;20218;-59
2022/08/12 14:33:33;;;;;;;;;;;;;;;27.61;65.18;154603.88;1710626;82;21197;-60
2022/08/12 14:36:02;;;;;;;;;;;;;;;27.35;66.87;154538.25;1707375;82;20173;-60